Time;durP1;ratioP1;P1;durP2;ratioP2;P2;SDS_P1;SDS_P2;PMS_P1;PMS_P2;Temp;Humidity;BMP_temperature;BMP_pressure;BME280_temperature;BME280_humidity;BME280_pressure;Samples;Min_cycle;Max_cycle;Signal;HPM_P1;HPM_P2
2023/04/29 00:00:32;;;;;;;36.00;23.60;;;10.30;95.60;;;;;;12554270;23;20189;-83
2023/04/29 00:05:35;;;;;;;44.27;27.73;;;10.40;96.70;;;;;;12553230;23;20221;-83
2023/04/29 00:10:38;;;;;;;38.40;25.73;;;10.40;96.70;;;;;;12537860;23;20250;-83
2023/04/29 00:15:41;;;;;;;28.87;20.97;;;10.30;97.50;;;;;;12553623;23;20167;-83
2023/04/29 00:20:44;;;;;;;25.27;16.63;;;10.30;97.30;;;;;;12552284;23;20247;-83
2023/04/29 00:25:47;;;;;;;31.40;20.17;;;10.40;98.30;;;;;;12527681;23;20241;-83
2023/04/29 00:30:50;;;;;;;29.83;18.63;;;10.20;97.40;;;;;;12553525;23;20193;-83
2023/04/29 00:35:52;;;;;;;24.20;18.47;;;9.90;98.00;;;;;;12551640;23;20182;-83
2023/04/29 00:40:55;;;;;;;20.40;14.80;;;9.70;98.80;;;;;;12550915;23;20277;-83
2023/04/29 00:45:58;;;;;;;22.87;15.57;;;9.90;99.90;;;;;;12553150;23;20166;-83
2023/04/29 00:51:02;;;;;;;22.07;17.20;;;10.20;99.90;;;;;;12550922;23;20189;-83
2023/04/29 00:56:06;;;;;;;24.50;17.97;;;10.00;99.20;;;;;;12528310;23;20180;-83
2023/04/29 01:01:10;;;;;;;25.07;17.30;;;10.00;99.30;;;;;;12551276;23;20217;-83
2023/04/29 01:06:19;;;;;;;25.93;18.87;;;9.80;99.20;;;;;;12551528;23;20170;-83
2023/04/29 01:11:26;;;;;;;26.63;18.30;;;9.60;99.50;;;;;;12597894;23;20212;-83
2023/04/29 01:16:51;;;;;;;30.33;19.27;;;9.60;99.80;;;;;;12613002;23;20177;-83
2023/04/29 01:21:55;;;;;;;26.73;17.67;;;9.50;99.90;;;;;;12614850;23;20181;-83
2023/04/29 01:27:08;;;;;;;28.80;18.03;;;9.60;99.90;;;;;;12612734;23;20256;-83
2023/04/29 01:32:42;;;;;;;26.87;17.33;;;9.50;99.90;;;;;;12613425;23;20233;-83
2023/04/29 01:38:10;;;;;;;32.87;18.13;;;9.50;99.90;;;;;;12626088;23;20173;-83
2023/04/29 01:43:15;;;;;;;27.17;19.27;;;9.60;99.90;;;;;;12589742;23;20178;-83
2023/04/29 01:48:22;;;;;;;30.37;18.50;;;9.70;99.90;;;;;;12589748;23;20595;-83
2023/04/29 01:53:24;;;;;;;22.00;14.67;;;9.60;99.90;;;;;;12615231;23;20227;-83
2023/04/29 01:58:28;;;;;;;17.30;12.23;;;9.70;99.90;;;;;;12613150;23;20181;-83
2023/04/29 02:04:07;;;;;;;19.40;13.93;;;9.90;99.90;;;;;;12611610;23;20183;-83
2023/04/29 02:09:11;;;;;;;24.93;15.83;;;10.30;99.90;;;;;;12612557;23;20203;-83
2023/04/29 02:14:22;;;;;;;16.73;13.10;;;10.30;99.90;;;;;;12612769;23;20174;-83
2023/04/29 02:19:25;;;;;;;25.10;15.47;;;10.20;99.90;;;;;;12613099;23;20645;-83
2023/04/29 02:24:30;;;;;;;26.77;17.20;;;10.30;99.90;;;;;;12612747;23;20248;-83
2023/04/29 02:29:33;;;;;;;26.33;17.47;;;10.20;99.90;;;;;;12611322;23;20202;-83
2023/04/29 02:34:35;;;;;;;22.83;14.50;;;10.10;99.90;;;;;;12612762;23;20640;-83
2023/04/29 02:39:38;;;;;;;25.67;18.13;;;10.30;99.90;;;;;;12614270;23;20174;-83
2023/04/29 02:44:41;;;;;;;30.17;19.67;;;10.20;99.90;;;;;;12614387;23;20170;-83
2023/04/29 02:49:44;;;;;;;23.67;17.50;;;9.90;99.90;;;;;;12588966;23;20225;-83
2023/04/29 02:54:46;;;;;;;25.50;16.70;;;10.00;99.90;;;;;;12588930;23;20634;-83
2023/04/29 02:59:49;;;;;;;22.93;15.23;;;9.90;99.90;;;;;;12612145;23;20181;-83
2023/04/29 03:04:52;;;;;;;20.20;14.47;;;10.00;99.90;;;;;;12612318;23;20171;-83
2023/04/29 03:09:55;;;;;;;20.53;13.53;;;10.20;99.90;;;;;;12611373;23;20747;-83
2023/04/29 03:14:58;;;;;;;29.10;19.03;;;10.30;99.90;;;;;;12587617;23;20515;-83
2023/04/29 03:20:00;;;;;;;22.73;18.00;;;10.20;99.90;;;;;;12563846;23;20649;-83
2023/04/29 03:25:04;;;;;;;24.30;18.43;;;10.00;99.90;;;;;;12610941;23;20245;-83
2023/04/29 03:30:08;;;;;;;25.90;17.97;;;10.20;99.90;;;;;;12611255;23;20198;-83
2023/04/29 03:35:19;;;;;;;31.07;18.57;;;10.40;99.90;;;;;;12611403;23;20236;-83
2023/04/29 03:40:48;;;;;;;24.10;18.43;;;10.40;99.90;;;;;;12611867;23;20177;-83
2023/04/29 03:45:52;;;;;;;32.87;20.30;;;10.00;99.90;;;;;;12611257;23;20190;-83
2023/04/29 03:50:59;;;;;;;26.10;19.17;;;9.60;99.90;;;;;;12610791;23;20237;-83
2023/04/29 03:56:02;;;;;;;27.50;19.83;;;9.50;99.90;;;;;;12610120;23;20178;-83
2023/04/29 04:01:05;;;;;;;27.43;17.77;;;9.40;99.90;;;;;;12587158;23;20218;-83
2023/04/29 04:06:17;;;;;;;28.17;17.97;;;9.60;99.90;;;;;;12610805;23;20244;-83
2023/04/29 04:11:21;;;;;;;25.73;18.23;;;9.80;99.90;;;;;;12575176;23;20254;-83
2023/04/29 04:16:33;;;;;;;32.93;20.87;;;10.00;99.90;;;;;;12575687;23;20179;-82
2023/04/29 04:21:36;;;;;;;27.60;17.90;;;9.90;99.90;;;;;;12575573;23;20630;-83
2023/04/29 04:26:42;;;;;;;25.00;18.03;;;10.00;99.90;;;;;;12574623;23;20251;-82
2023/04/29 04:32:11;;;;;;;26.20;19.53;;;10.10;99.90;;;;;;12550041;23;20805;-83
2023/04/29 04:37:14;;;;;;;29.47;20.13;;;10.00;99.90;;;;;;12574171;23;20250;-83
2023/04/29 04:42:22;;;;;;;29.73;20.53;;;10.00;99.90;;;;;;12550617;23;20573;-83
2023/04/29 04:47:26;;;;;;;27.97;18.43;;;10.10;99.90;;;;;;12574812;23;20680;-82
2023/04/29 04:52:39;;;;;;;22.47;13.87;;;10.30;99.90;;;;;;12556380;23;20183;-82
2023/04/29 04:58:05;;;;;;;16.60;13.33;;;10.40;99.90;;;;;;12570553;23;20264;-82
2023/04/29 05:03:08;;;;;;;22.97;16.27;;;10.60;99.90;;;;;;12581355;23;20214;-83
2023/04/29 05:08:11;;;;;;;19.73;13.53;;;10.80;99.90;;;;;;12558832;23;20206;-82
2023/04/29 05:13:19;;;;;;;29.37;18.83;;;11.10;99.90;;;;;;12557075;23;20178;-82
2023/04/29 05:18:22;;;;;;;24.23;16.20;;;11.20;99.90;;;;;;12581722;23;20178;-82
2023/04/29 05:23:26;;;;;;;23.37;17.87;;;11.30;99.90;;;;;;12534146;23;20241;-83
2023/04/29 05:28:29;;;;;;;28.20;19.60;;;11.30;99.90;;;;;;12555983;23;20202;-82
2023/04/29 05:33:32;;;;;;;28.73;17.70;;;11.30;99.90;;;;;;12557421;23;20638;-83
2023/04/29 05:38:35;;;;;;;23.07;16.50;;;11.50;99.90;;;;;;12557040;23;20184;-82
2023/04/29 05:43:40;;;;;;;24.27;18.97;;;11.60;99.90;;;;;;12557016;23;20729;-83
2023/04/29 05:48:42;;;;;;;17.37;13.87;;;11.90;99.90;;;;;;12557349;23;20265;-83
2023/04/29 05:53:46;;;;;;;12.97;11.00;;;12.10;99.90;;;;;;12556379;23;20182;-83
2023/04/29 05:58:49;;;;;;;16.47;10.53;;;12.70;99.90;;;;;;12581232;23;20173;-83
2023/04/29 06:03:52;;;;;;;8.53;6.97;;;12.70;99.90;;;;;;12529910;23;20241;-83
2023/04/29 06:09:14;;;;;;;20.77;14.67;;;12.90;99.90;;;;;;12538345;23;20649;-83
2023/04/29 06:14:30;;;;;;;23.90;16.37;;;13.20;99.90;;;;;;12532854;23;20234;-83
2023/04/29 06:19:33;;;;;;;12.50;8.50;;;13.30;99.00;;;;;;12553777;23;20497;-83
2023/04/29 06:24:36;;;;;;;22.70;15.57;;;13.40;98.80;;;;;;12553860;23;20661;-83
2023/04/29 06:29:39;;;;;;;22.17;14.67;;;13.60;97.50;;;;;;12553039;23;20261;-83
2023/04/29 06:34:44;;;;;;;17.97;13.13;;;13.50;97.70;;;;;;12529275;23;20422;-83
2023/04/29 06:40:06;;;;;;;20.00;12.00;;;13.60;96.90;;;;;;12554159;23;20186;-83
2023/04/29 06:45:38;;;;;;;18.97;12.93;;;13.80;97.20;;;;;;12529883;23;20241;-83
2023/04/29 06:50:55;;;;;;;19.83;12.97;;;13.90;96.10;;;;;;12551453;23;20201;-83
2023/04/29 06:55:58;;;;;;;22.23;13.23;;;14.10;96.20;;;;;;12571787;23;20199;-83
2023/04/29 07:01:02;;;;;;;16.27;14.47;;;14.10;95.90;;;;;;12552799;23;20233;-83
2023/04/29 07:06:05;;;;;;;23.67;15.37;;;14.20;95.50;;;;;;12551975;23;20182;-83
2023/04/29 07:11:08;;;;;;;21.13;14.90;;;14.30;95.20;;;;;;12554682;23;20594;-83
2023/04/29 07:16:19;;;;;;;19.53;13.33;;;14.40;95.50;;;;;;12552203;23;20232;-83
2023/04/29 07:21:22;;;;;;;17.67;11.63;;;;;;;;;;12528785;23;20243;-83
2023/04/29 07:26:26;;;;;;;8.93;6.23;;;14.70;95.30;;;;;;12551892;23;20651;-83
2023/04/29 07:31:28;;;;;;;18.33;13.83;;;14.80;94.90;;;;;;12528584;23;20198;-83
2023/04/29 07:36:31;;;;;;;19.33;14.83;;;14.90;93.60;;;;;;12552639;23;20723;-83
2023/04/29 07:41:34;;;;;;;21.10;14.77;;;14.90;93.50;;;;;;12528226;23;20185;-83
2023/04/29 07:46:37;;;;;;;14.53;11.83;;;15.10;93.00;;;;;;12528698;23;20234;-83
2023/04/29 07:51:43;;;;;;;13.63;9.63;;;15.20;92.50;;;;;;12528105;23;20202;-83
2023/04/29 07:56:45;;;;;;;17.40;13.43;;;15.20;92.80;;;;;;12529379;23;20716;-83
2023/04/29 08:01:48;;;;;;;20.60;14.67;;;15.10;92.50;;;;;;12551682;23;20182;-83
2023/04/29 08:06:51;;;;;;;17.70;11.97;;;15.00;93.10;;;;;;12552303;23;20188;-83
2023/04/29 08:11:54;;;;;;;10.43;7.57;;;14.90;93.50;;;;;;12551418;23;20205;-83
2023/04/29 08:16:56;;;;;;;8.47;6.43;;;14.80;93.90;;;;;;12551786;23;20234;-83
2023/04/29 08:21:59;;;;;;;16.00;11.77;;;14.90;93.40;;;;;;12574994;23;20238;-83
2023/04/29 08:27:03;;;;;;;31.83;10.87;;;15.00;93.50;;;;;;12527890;23;20174;-83
2023/04/29 08:32:05;;;;;;;16.77;13.33;;;15.00;93.70;;;;;;12528269;23;20198;-83
2023/04/29 08:37:08;;;;;;;19.20;10.97;;;15.20;92.70;;;;;;12550970;23;20178;-83
2023/04/29 08:42:11;;;;;;;16.20;12.70;;;15.50;92.60;;;;;;12551218;23;20499;-83
2023/04/29 08:47:15;;;;;;;20.30;12.63;;;16.10;92.20;;;;;;12553029;23;20186;-83
2023/04/29 08:52:17;;;;;;;15.83;12.47;;;15.50;93.40;;;;;;12553452;23;20202;-83
2023/04/29 08:57:21;;;;;;;20.57;13.40;;;16.60;90.20;;;;;;12553478;23;20200;-83
2023/04/29 09:02:24;;;;;;;14.50;11.93;;;16.80;88.30;;;;;;12553146;23;20170;-83
2023/04/29 09:07:27;;;;;;;21.97;13.70;;;16.80;85.30;;;;;;12552953;23;20178;-83
2023/04/29 09:12:30;;;;;;;16.43;11.33;;;16.80;83.50;;;;;;12569001;23;20218;-83
2023/04/29 09:17:41;;;;;;;16.23;11.00;;;16.60;83.50;;;;;;12552958;23;20167;-83
2023/04/29 09:22:52;;;;;;;20.80;13.47;;;16.70;85.40;;;;;;12565298;23;20170;-83
2023/04/29 09:27:55;;;;;;;16.97;13.23;;;17.10;85.30;;;;;;12553278;23;20190;-83
2023/04/29 09:33:08;;;;;;;13.53;10.53;;;17.40;81.70;;;;;;12552104;23;20182;-83
2023/04/29 09:38:15;;;;;;;15.60;12.07;;;17.40;81.80;;;;;;12566201;23;20222;-83
2023/04/29 09:43:18;;;;;;;19.70;14.60;;;17.50;80.50;;;;;;12531467;23;20185;-83
2023/04/29 09:48:21;;;;;;;17.20;12.33;;;17.60;78.40;;;;;;12531227;23;20186;-83
2023/04/29 09:53:28;;;;;;;16.43;13.07;;;18.10;76.90;;;;;;12554619;23;20189;-83
2023/04/29 09:58:36;;;;;;;12.90;10.13;;;18.10;77.70;;;;;;12555788;23;20182;-83
2023/04/29 10:03:41;;;;;;;5.67;4.77;;;18.20;73.40;;;;;;12531462;23;20185;-83
2023/04/29 10:08:47;;;;;;;15.80;12.60;;;18.30;73.60;;;;;;12555962;23;20203;-83
2023/04/29 10:13:51;;;;;;;14.67;11.80;;;18.40;73.10;;;;;;12572648;23;20169;-83
2023/04/29 10:18:55;;;;;;;13.50;10.53;;;18.40;71.80;;;;;;12555768;23;20637;-83
2023/04/29 10:23:59;;;;;;;16.97;11.23;;;18.40;72.10;;;;;;12530327;23;20186;-83
2023/04/29 10:29:02;;;;;;;15.53;11.60;;;18.60;69.30;;;;;;12555745;23;20573;-83
2023/04/29 10:34:04;;;;;;;24.63;11.47;;;18.60;68.90;;;;;;12555459;23;20182;-83
2023/04/29 10:39:19;;;;;;;9.13;8.23;;;18.60;67.80;;;;;;12555714;23;20659;-83
2023/04/29 10:44:22;;;;;;;13.37;10.73;;;18.40;68.00;;;;;;12532085;23;20569;-83
2023/04/29 10:49:33;;;;;;;8.63;7.37;;;18.30;70.20;;;;;;12553471;23;20684;-82
2023/04/29 10:54:35;;;;;;;8.57;7.20;;;18.40;68.30;;;;;;12555338;23;20188;-82
2023/04/29 10:59:38;;;;;;;12.33;8.30;;;18.50;67.10;;;;;;12553905;23;20565;-83
2023/04/29 11:05:07;;;;;;;7.93;6.47;;;18.60;67.40;;;;;;12555087;23;20173;-83
2023/04/29 11:10:12;;;;;;;12.83;10.00;;;18.60;66.70;;;;;;12555068;23;20289;-82
2023/04/29 11:15:17;;;;;;;10.60;9.50;;;18.90;65.10;;;;;;12554584;23;20174;-83
2023/04/29 11:20:20;;;;;;;14.03;10.90;;;18.90;65.00;;;;;;12555117;23;20712;-83
2023/04/29 11:25:24;;;;;;;13.77;12.20;;;19.00;69.50;;;;;;12554600;23;20522;-83
2023/04/29 11:30:28;;;;;;;14.37;11.23;;;19.00;67.60;;;;;;12552342;23;20232;-82
2023/04/29 11:35:31;;;;;;;14.37;7.93;;;19.20;67.90;;;;;;12554545;23;20197;-82
2023/04/29 11:40:33;;;;;;;20.80;11.03;;;19.30;65.30;;;;;;12555995;23;20244;-82
2023/04/29 11:45:38;;;;;;;15.97;10.90;;;19.40;67.50;;;;;;12570620;23;20177;-82
2023/04/29 11:50:41;;;;;;;5.87;5.37;;;19.60;67.40;;;;;;12528060;23;20201;-82
2023/04/29 11:55:45;;;;;;;12.43;10.57;;;19.50;64.00;;;;;;12553784;23;20211;-83
2023/04/29 12:00:47;;;;;;;11.87;10.50;;;19.60;67.80;;;;;;12553811;23;20708;-83
2023/04/29 12:05:51;;;;;;;14.97;10.97;;;19.70;69.30;;;;;;12554083;23;20217;-83
2023/04/29 12:10:56;;;;;;;13.53;11.37;;;19.80;65.70;;;;;;12553537;23;20200;-82
2023/04/29 12:15:59;;;;;;;10.77;9.20;;;20.00;65.10;;;;;;12553811;23;20625;-82
2023/04/29 12:21:01;;;;;;;13.57;10.70;;;20.00;62.30;;;;;;12553777;23;20178;-82
2023/04/29 12:26:04;;;;;;;10.97;9.77;;;19.90;61.30;;;;;;12553085;23;20222;-82
2023/04/29 12:31:11;;;;;;;14.87;11.03;;;19.90;62.90;;;;;;12553362;23;20186;-82
2023/04/29 12:36:18;;;;;;;13.77;11.00;;;20.00;61.80;;;;;;12553104;23;20178;-82
2023/04/29 12:41:39;;;;;;;10.97;8.93;;;20.10;60.60;;;;;;12546026;23;20174;-83
2023/04/29 12:46:41;;;;;;;12.63;11.27;;;20.00;62.60;;;;;;12552618;23;20218;-83
2023/04/29 12:51:44;;;;;;;10.47;7.53;;;20.00;65.80;;;;;;12528079;23;20657;-82
2023/04/29 12:56:47;;;;;;;15.90;11.30;;;20.10;64.40;;;;;;12575134;23;20632;-82
2023/04/29 13:01:51;;;;;;;6.23;5.60;;;20.00;64.60;;;;;;12552584;23;20218;-82
2023/04/29 13:06:59;;;;;;;8.53;7.63;;;19.90;60.30;;;;;;12552355;23;20186;-82
2023/04/29 13:12:01;;;;;;;12.90;9.47;;;19.60;59.20;;;;;;12555928;23;20273;-83
2023/04/29 13:17:04;;;;;;;9.43;8.37;;;19.30;64.80;;;;;;12555778;23;20208;-82
2023/04/29 13:22:07;;;;;;;12.97;10.53;;;19.00;66.90;;;;;;12556100;23;20779;-82
2023/04/29 13:27:10;;;;;;;30.90;10.73;;;18.80;72.60;;;;;;12554513;23;20189;-83
2023/04/29 13:32:14;;;;;;;10.67;9.57;;;18.60;80.70;;;;;;12556957;23;20202;-83
2023/04/29 13:37:19;;;;;;;11.97;10.43;;;18.50;83.00;;;;;;12555958;23;20242;-83
2023/04/29 13:42:22;;;;;;;9.80;8.63;;;18.40;87.70;;;;;;12531169;23;20214;-83
2023/04/29 13:47:28;;;;;;;26.87;9.43;;;18.20;86.60;;;;;;12556348;23;20185;-82
2023/04/29 13:52:33;;;;;;;5.87;5.23;;;17.80;87.10;;;;;;12556217;23;20189;-83
2023/04/29 13:57:38;;;;;;;12.23;11.03;;;17.50;88.70;;;;;;12556453;23;20495;-83
2023/04/29 14:03:00;;;;;;;16.80;11.50;;;17.30;94.40;;;;;;12556625;23;20182;-83
2023/04/29 14:08:03;;;;;;;15.40;11.30;;;17.00;98.90;;;;;;12555406;23;20230;-83
2023/04/29 14:13:06;;;;;;;22.97;14.17;;;16.90;99.90;;;;;;12530458;23;20590;-82
2023/04/29 14:18:10;;;;;;;17.13;12.33;;;16.80;99.90;;;;;;12555458;23;20639;-82
2023/04/29 14:23:13;;;;;;;3.60;3.30;;;16.70;99.90;;;;;;12566777;23;20174;-83
2023/04/29 14:28:15;;;;;;;4.07;3.67;;;16.40;95.50;;;;;;12555721;23;20214;-83
2023/04/29 14:33:17;;;;;;;4.03;3.70;;;16.30;95.10;;;;;;12555687;23;20189;-83
2023/04/29 14:38:21;;;;;;;6.80;4.17;;;16.30;94.50;;;;;;12556168;23;20182;-83
2023/04/29 14:43:23;;;;;;;9.50;4.30;;;15.90;96.70;;;;;;12555777;23;20174;-82
2023/04/29 14:48:27;;;;;;;8.03;5.03;;;15.60;99.90;;;;;;12573151;23;20174;-82
2023/04/29 14:53:30;;;;;;;6.13;5.47;;;15.30;99.90;;;;;;12553246;23;20253;-82
2023/04/29 14:58:32;;;;;;;8.43;5.93;;;14.90;99.90;;;;;;12555275;23;20629;-82
2023/04/29 15:03:35;;;;;;;11.67;8.33;;;14.70;99.90;;;;;;12554031;23;20555;-83
2023/04/29 15:08:46;;;;;;;10.87;7.70;;;14.50;99.90;;;;;;12564073;23;20268;-83
2023/04/29 15:13:49;;;;;;;6.50;5.80;;;14.40;99.90;;;;;;12555391;23;20206;-83
2023/04/29 15:18:52;;;;;;;6.30;5.70;;;14.40;99.90;;;;;;12555825;23;20182;-82
2023/04/29 15:23:54;;;;;;;5.27;4.77;;;14.50;99.90;;;;;;12554336;23;20583;-82
2023/04/29 15:28:56;;;;;;;6.80;5.80;;;14.60;99.90;;;;;;12554538;23;20226;-83
2023/04/29 15:33:59;;;;;;;5.87;5.00;;;14.70;99.90;;;;;;12554453;23;20204;-82
2023/04/29 15:39:02;;;;;;;6.07;4.67;;;14.70;99.90;;;;;;12554016;23;20169;-83
2023/04/29 15:44:05;;;;;;;7.33;6.63;;;14.70;99.90;;;;;;12554012;23;20202;-83
2023/04/29 15:49:07;;;;;;;6.50;5.83;;;14.90;99.90;;;;;;12576150;23;20217;-82
2023/04/29 15:54:10;;;;;;;5.90;5.40;;;14.90;99.90;;;;;;12553388;23;20203;-83
2023/04/29 15:59:14;;;;;;;9.93;6.87;;;15.00;99.90;;;;;;12553829;23;20549;-83
2023/04/29 16:04:17;;;;;;;7.20;4.77;;;15.00;99.90;;;;;;12552935;23;20238;-83
2023/04/29 16:09:20;;;;;;;5.57;4.13;;;15.00;99.90;;;;;;12553535;23;20577;-82
2023/04/29 16:14:23;;;;;;;7.30;6.47;;;15.40;99.90;;;;;;12552295;23;20224;-82
2023/04/29 16:19:25;;;;;;;5.10;4.60;;;15.50;99.90;;;;;;12554247;23;20184;-82
2023/04/29 16:24:27;;;;;;;5.23;4.60;;;15.30;99.90;;;;;;12552592;23;20238;-83
2023/04/29 16:29:30;;;;;;;6.73;5.57;;;15.00;99.90;;;;;;12552738;23;20241;-83
2023/04/29 16:34:32;;;;;;;4.50;4.10;;;15.00;99.90;;;;;;12552474;23;20724;-83
2023/04/29 16:39:35;;;;;;;8.00;5.87;;;14.90;99.90;;;;;;12553260;23;20717;-83
2023/04/29 16:44:37;;;;;;;11.77;9.90;;;14.70;99.90;;;;;;12553603;23;20260;-83
2023/04/29 16:49:41;;;;;;;5.93;5.33;;;14.40;99.90;;;;;;12553160;23;20199;-83
2023/04/29 16:54:43;;;;;;;6.80;5.03;;;14.30;99.90;;;;;;12552051;23;20185;-83
2023/04/29 16:59:46;;;;;;;6.33;5.57;;;14.40;99.90;;;;;;12553691;23;20728;-83
2023/04/29 17:04:49;;;;;;;11.73;9.63;;;14.50;99.90;;;;;;12554353;23;20181;-83
2023/04/29 17:09:52;;;;;;;7.03;5.87;;;14.70;99.90;;;;;;12550854;23;20208;-83
2023/04/29 17:14:56;;;;;;;13.43;10.40;;;14.50;99.90;;;;;;12553205;23;20239;-83
2023/04/29 17:19:58;;;;;;;12.77;10.00;;;14.30;99.90;;;;;;12552829;23;20573;-83
2023/04/29 17:25:03;;;;;;;12.23;8.67;;;;;;;;;;12552376;23;20187;-83
2023/04/29 17:30:07;;;;;;;11.13;9.37;;;13.80;99.90;;;;;;12550919;23;20260;-83
2023/04/29 17:35:10;;;;;;;9.80;7.70;;;13.80;99.90;;;;;;12526518;23;20680;-83
2023/04/29 17:40:13;;;;;;;10.80;8.87;;;13.80;99.90;;;;;;12550968;23;20175;-83
2023/04/29 17:45:16;;;;;;;15.03;10.43;;;;;;;;;;12552828;23;20240;-83
2023/04/29 17:50:19;;;;;;;20.67;14.87;;;13.30;99.90;;;;;;12569555;23;20188;-82
2023/04/29 17:55:21;;;;;;;9.37;8.03;;;13.10;99.90;;;;;;12552068;23;20572;-83
2023/04/29 18:00:24;;;;;;;19.90;14.30;;;13.00;99.90;;;;;;12555521;23;20189;-83
2023/04/29 18:05:26;;;;;;;20.90;15.10;;;12.80;99.90;;;;;;12554858;23;20182;-83
2023/04/29 18:10:29;;;;;;;27.87;20.20;;;12.70;99.90;;;;;;12554654;23;20236;-82
2023/04/29 18:15:32;;;;;;;11.80;10.13;;;12.50;99.90;;;;;;12555249;23;20708;-82
2023/04/29 18:20:35;;;;;;;19.57;15.67;;;12.40;99.90;;;;;;12556233;23;20269;-82
2023/04/29 18:25:38;;;;;;;21.77;16.23;;;12.20;99.90;;;;;;12530189;23;20712;-83
2023/04/29 18:30:41;;;;;;;26.43;18.60;;;12.30;99.90;;;;;;12555743;23;20243;-83
2023/04/29 18:35:43;;;;;;;23.47;18.50;;;12.10;99.90;;;;;;12556208;23;20178;-82
2023/04/29 18:40:47;;;;;;;30.00;23.87;;;12.10;99.90;;;;;;12554261;23;20244;-83
2023/04/29 18:45:50;;;;;;;23.83;15.00;;;12.30;99.90;;;;;;12555205;23;20614;-83
2023/04/29 18:50:53;;;;;;;27.47;19.30;;;12.20;99.90;;;;;;12555200;23;20190;-83
2023/04/29 18:55:56;;;;;;;15.77;12.67;;;12.30;99.90;;;;;;12555036;23;20257;-83
2023/04/29 19:01:01;;;;;;;25.37;17.90;;;12.20;99.90;;;;;;12571921;23;20629;-83
2023/04/29 19:06:04;;;;;;;26.50;18.53;;;12.00;99.90;;;;;;12554931;23;20174;-83
2023/04/29 19:11:06;;;;;;;31.67;20.77;;;12.00;99.90;;;;;;12553801;23;20206;-83
2023/04/29 19:16:09;;;;;;;22.93;18.63;;;11.90;99.90;;;;;;12555088;23;20167;-83
2023/04/29 19:21:15;;;;;;;20.17;17.87;;;11.80;99.90;;;;;;12554988;23;20621;-83
2023/04/29 19:26:18;;;;;;;22.87;17.67;;;11.60;99.90;;;;;;12555591;23;20174;-83
2023/04/29 19:31:20;;;;;;;19.40;15.80;;;11.40;99.90;;;;;;12547027;23;20241;-83
2023/04/29 19:36:23;;;;;;;19.07;15.83;;;11.20;99.90;;;;;;12554643;23;20167;-83
2023/04/29 19:41:26;;;;;;;16.20;12.93;;;11.20;99.90;;;;;;12554233;23;20202;-83
2023/04/29 19:46:28;;;;;;;18.80;14.40;;;11.10;99.90;;;;;;12570647;23;20210;-83
2023/04/29 19:51:31;;;;;;;16.73;11.50;;;11.00;99.90;;;;;;12553800;23;20265;-83
2023/04/29 19:56:33;;;;;;;18.83;13.23;;;11.00;99.90;;;;;;12553228;23;20515;-83
2023/04/29 20:01:36;;;;;;;17.67;14.17;;;10.90;99.90;;;;;;12554014;23;20544;-83
2023/04/29 20:06:39;;;;;;;17.53;12.43;;;10.90;99.90;;;;;;12553879;23;20182;-83
2023/04/29 20:11:42;;;;;;;18.47;14.60;;;10.80;99.90;;;;;;12552672;23;20235;-83
2023/04/29 20:16:44;;;;;;;16.93;12.87;;;10.80;99.90;;;;;;12571158;23;20166;-83
2023/04/29 20:21:47;;;;;;;14.93;10.33;;;10.70;99.90;;;;;;12570458;23;20170;-83
2023/04/29 20:26:49;;;;;;;20.47;12.33;;;10.50;99.90;;;;;;12553419;23;20261;-83
2023/04/29 20:31:52;;;;;;;19.13;12.47;;;10.50;99.90;;;;;;12551016;23;20677;-83
2023/04/29 20:36:54;;;;;;;15.90;11.73;;;10.50;99.90;;;;;;12553103;23;20167;-83
2023/04/29 20:41:57;;;;;;;15.07;12.00;;;10.40;99.90;;;;;;12553293;23;20182;-83
2023/04/29 20:46:59;;;;;;;14.23;11.13;;;10.50;99.90;;;;;;12552656;23;20242;-83
2023/04/29 20:52:05;;;;;;;19.63;13.00;;;10.50;99.90;;;;;;12527400;23;20202;-83
2023/04/29 20:57:07;;;;;;;11.93;9.47;;;10.40;99.90;;;;;;12553541;23;20521;-83
2023/04/29 21:02:11;;;;;;;15.20;10.77;;;10.60;99.90;;;;;;12553031;23;20242;-83
2023/04/29 21:07:13;;;;;;;14.03;8.93;;;10.60;99.90;;;;;;12553107;23;20230;-83
2023/04/29 21:12:16;;;;;;;14.97;10.97;;;10.50;99.90;;;;;;12553333;23;20202;-83
2023/04/29 21:17:18;;;;;;;14.40;10.43;;;10.40;99.90;;;;;;12527498;23;20179;-83
2023/04/29 21:22:21;;;;;;;14.27;9.43;;;10.30;99.90;;;;;;12552761;23;20203;-83
2023/04/29 21:27:23;;;;;;;16.83;9.43;;;10.40;99.90;;;;;;12574883;23;20428;-83
2023/04/29 21:32:26;;;;;;;13.30;10.80;;;10.50;99.90;;;;;;12553154;23;20588;-83
2023/04/29 21:37:29;;;;;;;16.23;11.27;;;10.50;99.90;;;;;;12556744;23;20690;-83
2023/04/29 21:42:33;;;;;;;14.40;9.33;;;10.50;99.90;;;;;;12556539;23;20175;-83
2023/04/29 21:47:36;;;;;;;14.47;11.33;;;10.50;99.90;;;;;;12554676;23;20178;-83
2023/04/29 21:52:38;;;;;;;14.43;10.83;;;10.50;99.90;;;;;;12555593;23;20202;-83
2023/04/29 21:57:41;;;;;;;13.10;11.23;;;10.30;99.90;;;;;;12530689;23;20179;-83
2023/04/29 22:02:46;;;;;;;11.43;9.47;;;10.30;99.90;;;;;;12553637;23;20576;-83
2023/04/29 22:07:49;;;;;;;7.17;6.23;;;10.30;99.90;;;;;;12556210;23;20206;-83
2023/04/29 22:12:52;;;;;;;10.47;8.13;;;10.30;99.90;;;;;;12553720;23;20206;-83
2023/04/29 22:17:55;;;;;;;10.10;8.20;;;10.30;99.90;;;;;;12555014;23;20234;-83
2023/04/29 22:22:58;;;;;;;10.07;7.87;;;10.50;99.90;;;;;;12555716;23;20588;-83
2023/04/29 22:28:01;;;;;;;9.37;7.83;;;10.40;99.90;;;;;;12555553;23;20218;-83
2023/04/29 22:33:03;;;;;;;12.30;8.10;;;10.40;99.90;;;;;;12553553;23;20202;-83
2023/04/29 22:38:06;;;;;;;10.10;7.93;;;10.40;99.90;;;;;;12555438;23;20171;-83
2023/04/29 22:43:09;;;;;;;10.47;8.37;;;10.40;99.90;;;;;;12555387;23;20241;-83
2023/04/29 22:48:11;;;;;;;13.57;8.60;;;10.40;99.90;;;;;;12553805;23;20182;-83
2023/04/29 22:53:14;;;;;;;9.67;7.80;;;10.20;99.90;;;;;;12554711;23;20207;-83
2023/04/29 22:58:16;;;;;;;10.03;7.90;;;10.10;99.90;;;;;;12554960;23;20170;-83
2023/04/29 23:03:19;;;;;;;10.60;8.17;;;10.10;99.90;;;;;;12555154;23;20182;-83
2023/04/29 23:08:21;;;;;;;8.70;7.50;;;10.10;99.90;;;;;;12555342;23;20317;-83
2023/04/29 23:13:25;;;;;;;10.30;8.27;;;10.10;99.90;;;;;;12553892;23;20209;-83
2023/04/29 23:18:28;;;;;;;16.73;8.20;;;9.90;99.90;;;;;;12553275;23;20429;-83
2023/04/29 23:23:30;;;;;;;12.47;7.90;;;10.00;99.90;;;;;;12554430;23;20659;-83
2023/04/29 23:28:33;;;;;;;10.53;7.80;;;9.90;99.90;;;;;;12552362;23;20720;-83
2023/04/29 23:33:35;;;;;;;10.83;8.80;;;9.80;99.90;;;;;;12570399;23;20506;-83
2023/04/29 23:38:38;;;;;;;12.83;8.37;;;9.70;99.90;;;;;;12552686;23;20581;-83
2023/04/29 23:43:40;;;;;;;11.17;8.20;;;9.60;99.90;;;;;;12552990;23;20505;-83
2023/04/29 23:48:44;;;;;;;8.80;6.93;;;9.70;99.90;;;;;;12554910;23;20482;-83
2023/04/29 23:53:46;;;;;;;12.00;8.67;;;9.70;99.90;;;;;;12553868;23;20192;-83
2023/04/29 23:58:49;;;;;;;10.03;8.10;;;9.80;99.90;;;;;;12554603;23;20182;-83
